createdAt,value
2023-02-19T20:58:27.191Z,97198.13
2023-02-19T21:01:04.540Z,97191.16
2023-02-19T21:03:35.843Z,97201.63
2023-02-19T21:06:06.585Z,97211.06
2023-02-19T21:11:59.006Z,97213.78
2023-02-19T21:14:31.017Z,97207.88
2023-02-19T21:17:14.127Z,97214.06
2023-02-19T21:19:42.784Z,97211.38
2023-02-19T21:22:13.953Z,97207.03
2023-02-19T21:25:20.382Z,97204.63
2023-02-19T21:28:00.683Z,97204.38
2023-02-19T21:30:54.744Z,97203.28
2023-02-19T21:33:25.152Z,97210.56
2023-02-19T21:36:05.914Z,97214.34
2023-02-19T21:38:40.478Z,97220.28
2023-02-19T21:41:29.525Z,97214.63
2023-02-19T21:43:59.523Z,97206.78
2023-02-19T21:46:35.531Z,97208.69
2023-02-19T21:49:10.936Z,97196.56
2023-02-19T21:51:41.846Z,97205.19
2023-02-19T21:54:19.117Z,97206.78
2023-02-19T21:56:49.786Z,97204.66
2023-02-19T21:59:20.870Z,97207.91
2023-02-19T22:01:52.155Z,97207.91
2023-02-19T22:04:24.769Z,97219.47
2023-02-19T22:06:57.261Z,97206.28
2023-02-19T22:09:26.060Z,97210.88
2023-02-19T22:11:54.519Z,97203.63
2023-02-19T22:14:28.953Z,97208.44
2023-02-19T22:16:58.914Z,97206.03
2023-02-19T22:19:34.678Z,97204.94
2023-02-19T22:22:05.785Z,97218.16
2023-02-19T22:24:33.978Z,97208.72
2023-02-19T22:27:02.170Z,97207.41
2023-02-19T22:29:31.497Z,97202.81
2023-02-19T22:32:04.271Z,97206.31
2023-02-19T22:34:35.681Z,97199.31
2023-02-19T22:37:12.672Z,97207.13
2023-02-19T22:39:46.674Z,97201.75
2023-02-19T22:42:15.021Z,97199.88
2023-02-19T22:44:54.452Z,97204.16
2023-02-19T22:47:27.333Z,97206.34
2023-02-19T22:49:55.213Z,97214.94
2023-02-19T22:52:24.089Z,97210.09
2023-02-19T22:55:01.595Z,97223.53
2023-02-19T22:57:36.526Z,97222.22
2023-02-19T23:00:08.769Z,97231.63
2023-02-19T23:02:41.333Z,97227.59
2023-02-19T23:05:09.896Z,97227.06
2023-02-19T23:07:38.238Z,97225.16
2023-02-19T23:10:08.769Z,97232.16
2023-02-19T23:12:38.187Z,97239.16
2023-02-19T23:15:07.157Z,97244.28
2023-02-19T23:17:35.399Z,97241.31
2023-02-19T23:20:05.850Z,97243.72
2023-02-19T23:22:35.224Z,97238.63
2023-02-19T23:25:03.537Z,97242.41
2023-02-19T23:27:31.881Z,97242.41
2023-02-19T23:30:02.660Z,97240.50
2023-02-19T23:32:30.874Z,97236.22
2023-02-19T23:34:59.982Z,97245.63
2023-02-19T23:37:29.696Z,97241.84
2023-02-19T23:39:57.901Z,97244.28
2023-02-19T23:42:26.113Z,97235.94
2023-02-19T23:44:54.802Z,97235.13
2023-02-19T23:47:25.979Z,97236.22
2023-02-19T23:49:54.788Z,97236.22
2023-02-19T23:52:25.656Z,97241.84
2023-02-19T23:54:59.193Z,97239.44
2023-02-19T23:57:27.494Z,97234.88
2023-02-19T23:59:55.875Z,97243.22
